sensor_id;sensor_type;location;lat;lon;timestamp;P1;durP1;ratioP1;P2;durP2;ratioP2
51866;SDS011;52862;52.504;13.480;2023-07-30T00:00:06;12.33;;;7.87;;
51866;SDS011;52862;52.504;13.480;2023-07-30T00:02:33;12.63;;;8.03;;
51866;SDS011;52862;52.504;13.480;2023-07-30T00:05:00;11.03;;;7.13;;
51866;SDS011;52862;52.504;13.480;2023-07-30T00:07:28;19.17;;;8.23;;
51866;SDS011;52862;52.504;13.480;2023-07-30T00:09:56;17.73;;;6.87;;
51866;SDS011;52862;52.504;13.480;2023-07-30T00:12:23;12.40;;;7.10;;
51866;SDS011;52862;52.504;13.480;2023-07-30T00:14:50;13.53;;;7.30;;
51866;SDS011;52862;52.504;13.480;2023-07-30T00:17:17;16.43;;;7.13;;
51866;SDS011;52862;52.504;13.480;2023-07-30T00:19:44;18.50;;;7.37;;
51866;SDS011;52862;52.504;13.480;2023-07-30T00:22:11;11.73;;;6.90;;
51866;SDS011;52862;52.504;13.480;2023-07-30T00:24:40;10.73;;;6.47;;
51866;SDS011;52862;52.504;13.480;2023-07-30T00:27:07;9.57;;;6.63;;
51866;SDS011;52862;52.504;13.480;2023-07-30T00:29:34;9.87;;;6.53;;
51866;SDS011;52862;52.504;13.480;2023-07-30T00:32:01;17.10;;;6.70;;
51866;SDS011;52862;52.504;13.480;2023-07-30T00:34:28;11.00;;;6.80;;
51866;SDS011;52862;52.504;13.480;2023-07-30T00:36:54;11.00;;;6.27;;
51866;SDS011;52862;52.504;13.480;2023-07-30T00:39:21;12.90;;;6.53;;
51866;SDS011;52862;52.504;13.480;2023-07-30T00:41:49;14.13;;;6.50;;
51866;SDS011;52862;52.504;13.480;2023-07-30T00:44:16;10.63;;;6.57;;
51866;SDS011;52862;52.504;13.480;2023-07-30T00:46:43;10.03;;;6.43;;
51866;SDS011;52862;52.504;13.480;2023-07-30T00:49:10;11.37;;;6.33;;
51866;SDS011;52862;52.504;13.480;2023-07-30T00:51:37;9.90;;;5.97;;
51866;SDS011;52862;52.504;13.480;2023-07-30T00:54:05;9.17;;;5.80;;
51866;SDS011;52862;52.504;13.480;2023-07-30T00:56:32;9.47;;;6.10;;
51866;SDS011;52862;52.504;13.480;2023-07-30T00:58:59;13.47;;;6.73;;
51866;SDS011;52862;52.504;13.480;2023-07-30T01:01:26;11.57;;;4.97;;
51866;SDS011;52862;52.504;13.480;2023-07-30T01:03:54;6.77;;;4.93;;
51866;SDS011;52862;52.504;13.480;2023-07-30T01:06:21;7.70;;;4.77;;
51866;SDS011;52862;52.504;13.480;2023-07-30T01:08:49;8.27;;;4.87;;
51866;SDS011;52862;52.504;13.480;2023-07-30T01:11:16;8.97;;;4.53;;
51866;SDS011;52862;52.504;13.480;2023-07-30T01:13:44;6.50;;;4.47;;
51866;SDS011;52862;52.504;13.480;2023-07-30T01:16:14;7.33;;;4.43;;
51866;SDS011;52862;52.504;13.480;2023-07-30T01:18:41;9.03;;;5.10;;
51866;SDS011;52862;52.504;13.480;2023-07-30T01:21:09;6.47;;;4.53;;
51866;SDS011;52862;52.504;13.480;2023-07-30T01:23:36;8.47;;;4.83;;
51866;SDS011;52862;52.504;13.480;2023-07-30T01:26:04;6.60;;;4.03;;
51866;SDS011;52862;52.504;13.480;2023-07-30T01:28:36;8.70;;;4.17;;
51866;SDS011;52862;52.504;13.480;2023-07-30T01:31:08;8.53;;;4.17;;
51866;SDS011;52862;52.504;13.480;2023-07-30T01:33:39;5.87;;;4.23;;
51866;SDS011;52862;52.504;13.480;2023-07-30T01:36:07;6.07;;;4.40;;
51866;SDS011;52862;52.504;13.480;2023-07-30T01:38:36;7.80;;;3.90;;
51866;SDS011;52862;52.504;13.480;2023-07-30T01:41:04;7.87;;;4.20;;
51866;SDS011;52862;52.504;13.480;2023-07-30T01:43:31;6.50;;;4.03;;
51866;SDS011;52862;52.504;13.480;2023-07-30T01:45:58;12.80;;;4.20;;
51866;SDS011;52862;52.504;13.480;2023-07-30T01:48:25;8.67;;;4.30;;
51866;SDS011;52862;52.504;13.480;2023-07-30T01:50:52;12.33;;;4.50;;
51866;SDS011;52862;52.504;13.480;2023-07-30T01:53:20;9.93;;;4.60;;
51866;SDS011;52862;52.504;13.480;2023-07-30T01:55:46;6.73;;;4.00;;
51866;SDS011;52862;52.504;13.480;2023-07-30T01:58:13;9.00;;;4.40;;
51866;SDS011;52862;52.504;13.480;2023-07-30T02:00:40;8.30;;;5.23;;
51866;SDS011;52862;52.504;13.480;2023-07-30T02:03:07;17.33;;;5.60;;
51866;SDS011;52862;52.504;13.480;2023-07-30T02:05:34;10.03;;;4.70;;
51866;SDS011;52862;52.504;13.480;2023-07-30T02:08:01;9.67;;;4.80;;
51866;SDS011;52862;52.504;13.480;2023-07-30T02:10:29;11.00;;;5.20;;
51866;SDS011;52862;52.504;13.480;2023-07-30T02:12:56;8.43;;;4.97;;
51866;SDS011;52862;52.504;13.480;2023-07-30T02:15:23;9.97;;;5.77;;
51866;SDS011;52862;52.504;13.480;2023-07-30T02:17:50;10.50;;;5.87;;
51866;SDS011;52862;52.504;13.480;2023-07-30T02:20:17;11.77;;;5.37;;
51866;SDS011;52862;52.504;13.480;2023-07-30T02:22:44;11.50;;;5.73;;
51866;SDS011;52862;52.504;13.480;2023-07-30T02:25:11;12.93;;;6.67;;
51866;SDS011;52862;52.504;13.480;2023-07-30T02:27:39;48.33;;;14.50;;
51866;SDS011;52862;52.504;13.480;2023-07-30T02:30:06;18.53;;;5.67;;
51866;SDS011;52862;52.504;13.480;2023-07-30T02:32:33;12.60;;;6.17;;
51866;SDS011;52862;52.504;13.480;2023-07-30T02:35:00;14.07;;;6.90;;
51866;SDS011;52862;52.504;13.480;2023-07-30T02:37:27;16.70;;;6.43;;
51866;SDS011;52862;52.504;13.480;2023-07-30T02:39:54;17.10;;;6.40;;
51866;SDS011;52862;52.504;13.480;2023-07-30T02:42:21;12.63;;;5.73;;
51866;SDS011;52862;52.504;13.480;2023-07-30T02:44:48;9.47;;;6.37;;
51866;SDS011;52862;52.504;13.480;2023-07-30T02:47:16;14.23;;;5.80;;
51866;SDS011;52862;52.504;13.480;2023-07-30T02:49:42;14.07;;;6.50;;
51866;SDS011;52862;52.504;13.480;2023-07-30T02:52:09;10.63;;;6.40;;
51866;SDS011;52862;52.504;13.480;2023-07-30T02:54:36;9.17;;;6.03;;
51866;SDS011;52862;52.504;13.480;2023-07-30T02:57:03;9.77;;;6.87;;
51866;SDS011;52862;52.504;13.480;2023-07-30T02:59:30;11.23;;;5.63;;
51866;SDS011;52862;52.504;13.480;2023-07-30T03:02:02;13.40;;;6.27;;
51866;SDS011;52862;52.504;13.480;2023-07-30T03:04:30;13.47;;;6.90;;
51866;SDS011;52862;52.504;13.480;2023-07-30T03:06:57;12.67;;;5.67;;
51866;SDS011;52862;52.504;13.480;2023-07-30T03:09:24;24.80;;;6.60;;
51866;SDS011;52862;52.504;13.480;2023-07-30T03:11:51;16.20;;;6.30;;
51866;SDS011;52862;52.504;13.480;2023-07-30T03:14:18;11.20;;;6.30;;
51866;SDS011;52862;52.504;13.480;2023-07-30T03:16:46;17.90;;;6.83;;
51866;SDS011;52862;52.504;13.480;2023-07-30T03:19:14;9.17;;;6.47;;
51866;SDS011;52862;52.504;13.480;2023-07-30T03:21:41;12.37;;;6.67;;
51866;SDS011;52862;52.504;13.480;2023-07-30T03:24:08;15.17;;;6.80;;
51866;SDS011;52862;52.504;13.480;2023-07-30T03:26:35;13.70;;;7.60;;
51866;SDS011;52862;52.504;13.480;2023-07-30T03:29:02;16.10;;;7.00;;
51866;SDS011;52862;52.504;13.480;2023-07-30T03:31:29;19.70;;;7.17;;
51866;SDS011;52862;52.504;13.480;2023-07-30T03:33:56;16.07;;;7.97;;
51866;SDS011;52862;52.504;13.480;2023-07-30T03:36:24;13.30;;;7.20;;
51866;SDS011;52862;52.504;13.480;2023-07-30T03:38:51;16.90;;;7.30;;
51866;SDS011;52862;52.504;13.480;2023-07-30T03:41:17;12.23;;;7.10;;
51866;SDS011;52862;52.504;13.480;2023-07-30T03:43:44;9.37;;;6.47;;
51866;SDS011;52862;52.504;13.480;2023-07-30T03:46:11;13.37;;;7.47;;
51866;SDS011;52862;52.504;13.480;2023-07-30T03:48:38;13.30;;;7.23;;
51866;SDS011;52862;52.504;13.480;2023-07-30T03:51:05;13.07;;;6.60;;
51866;SDS011;52862;52.504;13.480;2023-07-30T03:53:33;14.73;;;6.73;;
51866;SDS011;52862;52.504;13.480;2023-07-30T03:56:01;11.73;;;7.50;;
51866;SDS011;52862;52.504;13.480;2023-07-30T03:58:28;11.10;;;7.77;;
51866;SDS011;52862;52.504;13.480;2023-07-30T04:00:59;11.00;;;7.13;;
51866;SDS011;52862;52.504;13.480;2023-07-30T04:03:25;12.60;;;6.83;;
51866;SDS011;52862;52.504;13.480;2023-07-30T04:05:52;14.97;;;7.03;;
51866;SDS011;52862;52.504;13.480;2023-07-30T04:08:19;12.37;;;7.13;;
51866;SDS011;52862;52.504;13.480;2023-07-30T04:10:47;16.70;;;7.20;;
51866;SDS011;52862;52.504;13.480;2023-07-30T04:13:14;12.93;;;7.23;;
51866;SDS011;52862;52.504;13.480;2023-07-30T04:15:41;13.13;;;6.97;;
51866;SDS011;52862;52.504;13.480;2023-07-30T04:18:08;12.07;;;7.73;;
51866;SDS011;52862;52.504;13.480;2023-07-30T04:20:37;13.73;;;7.70;;
51866;SDS011;52862;52.504;13.480;2023-07-30T04:23:04;14.97;;;6.83;;
51866;SDS011;52862;52.504;13.480;2023-07-30T04:25:31;11.33;;;6.30;;
51866;SDS011;52862;52.504;13.480;2023-07-30T04:27:58;11.03;;;6.40;;
51866;SDS011;52862;52.504;13.480;2023-07-30T04:30:25;9.03;;;6.03;;
51866;SDS011;52862;52.504;13.480;2023-07-30T04:32:52;11.23;;;6.40;;
51866;SDS011;52862;52.504;13.480;2023-07-30T04:35:19;13.47;;;6.27;;
51866;SDS011;52862;52.504;13.480;2023-07-30T04:37:46;10.13;;;6.27;;
51866;SDS011;52862;52.504;13.480;2023-07-30T04:40:13;14.00;;;5.63;;
51866;SDS011;52862;52.504;13.480;2023-07-30T04:42:40;8.40;;;6.03;;
51866;SDS011;52862;52.504;13.480;2023-07-30T04:45:08;9.50;;;5.97;;
51866;SDS011;52862;52.504;13.480;2023-07-30T04:47:35;11.30;;;6.57;;
51866;SDS011;52862;52.504;13.480;2023-07-30T04:50:03;7.90;;;5.30;;
51866;SDS011;52862;52.504;13.480;2023-07-30T04:52:30;12.33;;;5.53;;
51866;SDS011;52862;52.504;13.480;2023-07-30T04:54:57;10.83;;;5.63;;
51866;SDS011;52862;52.504;13.480;2023-07-30T04:57:24;13.77;;;5.97;;
51866;SDS011;52862;52.504;13.480;2023-07-30T04:59:51;7.50;;;5.90;;
51866;SDS011;52862;52.504;13.480;2023-07-30T05:02:19;10.50;;;6.07;;
51866;SDS011;52862;52.504;13.480;2023-07-30T05:04:46;11.93;;;5.53;;
51866;SDS011;52862;52.504;13.480;2023-07-30T05:07:13;9.30;;;5.20;;
51866;SDS011;52862;52.504;13.480;2023-07-30T05:09:40;8.73;;;5.33;;
51866;SDS011;52862;52.504;13.480;2023-07-30T05:12:07;13.73;;;4.47;;
51866;SDS011;52862;52.504;13.480;2023-07-30T05:14:34;9.00;;;4.77;;
51866;SDS011;52862;52.504;13.480;2023-07-30T05:17:01;7.67;;;4.70;;
51866;SDS011;52862;52.504;13.480;2023-07-30T05:19:29;8.07;;;4.97;;
51866;SDS011;52862;52.504;13.480;2023-07-30T05:21:56;6.93;;;4.90;;
51866;SDS011;52862;52.504;13.480;2023-07-30T05:24:24;6.00;;;4.13;;
51866;SDS011;52862;52.504;13.480;2023-07-30T05:26:51;8.07;;;4.20;;
51866;SDS011;52862;52.504;13.480;2023-07-30T05:29:18;7.93;;;4.93;;
51866;SDS011;52862;52.504;13.480;2023-07-30T05:31:45;16.50;;;5.00;;
51866;SDS011;52862;52.504;13.480;2023-07-30T05:34:12;6.70;;;4.37;;
51866;SDS011;52862;52.504;13.480;2023-07-30T05:36:40;9.37;;;3.70;;
51866;SDS011;52862;52.504;13.480;2023-07-30T05:39:07;7.97;;;4.53;;
51866;SDS011;52862;52.504;13.480;2023-07-30T05:41:34;5.13;;;3.80;;
51866;SDS011;52862;52.504;13.480;2023-07-30T05:44:02;4.70;;;3.23;;
51866;SDS011;52862;52.504;13.480;2023-07-30T05:46:29;7.10;;;3.67;;
51866;SDS011;52862;52.504;13.480;2023-07-30T05:48:56;4.30;;;3.30;;
51866;SDS011;52862;52.504;13.480;2023-07-30T05:51:22;7.03;;;3.40;;
51866;SDS011;52862;52.504;13.480;2023-07-30T05:53:50;13.30;;;3.20;;
51866;SDS011;52862;52.504;13.480;2023-07-30T05:56:17;8.53;;;3.30;;
51866;SDS011;52862;52.504;13.480;2023-07-30T05:58:45;5.57;;;2.93;;
51866;SDS011;52862;52.504;13.480;2023-07-30T06:01:12;6.57;;;3.03;;
51866;SDS011;52862;52.504;13.480;2023-07-30T06:03:40;5.33;;;3.20;;
51866;SDS011;52862;52.504;13.480;2023-07-30T06:06:06;9.50;;;3.50;;
51866;SDS011;52862;52.504;13.480;2023-07-30T06:08:33;3.03;;;2.70;;
51866;SDS011;52862;52.504;13.480;2023-07-30T06:11:02;4.17;;;3.10;;
51866;SDS011;52862;52.504;13.480;2023-07-30T06:13:29;8.10;;;3.30;;
51866;SDS011;52862;52.504;13.480;2023-07-30T06:15:56;4.27;;;2.90;;
51866;SDS011;52862;52.504;13.480;2023-07-30T06:18:23;5.03;;;3.10;;
51866;SDS011;52862;52.504;13.480;2023-07-30T06:20:50;8.80;;;3.20;;
51866;SDS011;52862;52.504;13.480;2023-07-30T06:23:17;6.60;;;2.97;;
51866;SDS011;52862;52.504;13.480;2023-07-30T06:25:44;5.15;;;2.67;;
51866;SDS011;52862;52.504;13.480;2023-07-30T06:28:12;5.60;;;3.07;;
51866;SDS011;52862;52.504;13.480;2023-07-30T06:30:39;5.40;;;2.63;;
51866;SDS011;52862;52.504;13.480;2023-07-30T06:33:06;11.27;;;3.20;;
51866;SDS011;52862;52.504;13.480;2023-07-30T06:35:33;9.67;;;2.80;;
51866;SDS011;52862;52.504;13.480;2023-07-30T06:38:00;4.17;;;2.63;;
51866;SDS011;52862;52.504;13.480;2023-07-30T06:40:26;6.20;;;2.87;;
51866;SDS011;52862;52.504;13.480;2023-07-30T06:42:56;10.87;;;2.70;;
51866;SDS011;52862;52.504;13.480;2023-07-30T06:45:24;5.20;;;2.40;;
51866;SDS011;52862;52.504;13.480;2023-07-30T06:47:51;6.00;;;2.90;;
51866;SDS011;52862;52.504;13.480;2023-07-30T06:50:18;2.90;;;2.40;;
51866;SDS011;52862;52.504;13.480;2023-07-30T06:52:45;3.53;;;2.60;;
51866;SDS011;52862;52.504;13.480;2023-07-30T06:55:12;2.87;;;2.13;;
51866;SDS011;52862;52.504;13.480;2023-07-30T06:57:39;10.50;;;4.40;;
51866;SDS011;52862;52.504;13.480;2023-07-30T07:00:07;7.87;;;2.77;;
51866;SDS011;52862;52.504;13.480;2023-07-30T07:02:35;5.93;;;2.60;;
51866;SDS011;52862;52.504;13.480;2023-07-30T07:05:02;12.80;;;2.80;;
51866;SDS011;52862;52.504;13.480;2023-07-30T07:07:29;5.30;;;2.45;;
51866;SDS011;52862;52.504;13.480;2023-07-30T07:09:56;7.07;;;2.45;;
51866;SDS011;52862;52.504;13.480;2023-07-30T07:12:23;4.00;;;2.40;;
51866;SDS011;52862;52.504;13.480;2023-07-30T07:14:50;9.30;;;2.70;;
51866;SDS011;52862;52.504;13.480;2023-07-30T07:17:17;12.85;;;2.28;;
51866;SDS011;52862;52.504;13.480;2023-07-30T07:19:45;4.28;;;2.10;;
51866;SDS011;52862;52.504;13.480;2023-07-30T07:22:12;8.45;;;2.60;;
51866;SDS011;52862;52.504;13.480;2023-07-30T07:24:39;6.90;;;2.30;;
51866;SDS011;52862;52.504;13.480;2023-07-30T07:27:06;4.25;;;2.90;;
51866;SDS011;52862;52.504;13.480;2023-07-30T07:29:33;14.63;;;3.10;;
51866;SDS011;52862;52.504;13.480;2023-07-30T07:32:00;4.80;;;2.40;;
51866;SDS011;52862;52.504;13.480;2023-07-30T07:34:27;4.53;;;2.50;;
51866;SDS011;52862;52.504;13.480;2023-07-30T07:36:55;5.28;;;2.88;;
51866;SDS011;52862;52.504;13.480;2023-07-30T07:39:21;10.20;;;2.75;;
51866;SDS011;52862;52.504;13.480;2023-07-30T07:41:48;6.03;;;3.00;;
51866;SDS011;52862;52.504;13.480;2023-07-30T07:44:15;4.80;;;2.80;;
51866;SDS011;52862;52.504;13.480;2023-07-30T07:46:42;6.32;;;2.80;;
51866;SDS011;52862;52.504;13.480;2023-07-30T07:49:09;16.17;;;2.70;;
51866;SDS011;52862;52.504;13.480;2023-07-30T07:51:36;4.60;;;2.53;;
51866;SDS011;52862;52.504;13.480;2023-07-30T07:54:04;3.30;;;2.55;;
51866;SDS011;52862;52.504;13.480;2023-07-30T07:56:31;5.03;;;2.80;;
51866;SDS011;52862;52.504;13.480;2023-07-30T07:58:58;6.93;;;2.67;;
51866;SDS011;52862;52.504;13.480;2023-07-30T08:01:25;4.53;;;2.72;;
51866;SDS011;52862;52.504;13.480;2023-07-30T08:03:52;9.05;;;2.58;;
51866;SDS011;52862;52.504;13.480;2023-07-30T08:06:19;5.57;;;2.83;;
51866;SDS011;52862;52.504;13.480;2023-07-30T08:08:46;4.00;;;2.92;;
51866;SDS011;52862;52.504;13.480;2023-07-30T08:11:14;8.63;;;2.58;;
51866;SDS011;52862;52.504;13.480;2023-07-30T08:13:41;7.70;;;2.88;;
51866;SDS011;52862;52.504;13.480;2023-07-30T08:16:07;5.82;;;2.50;;
51866;SDS011;52862;52.504;13.480;2023-07-30T08:18:34;8.45;;;2.78;;
51866;SDS011;52862;52.504;13.480;2023-07-30T08:21:01;10.07;;;3.55;;
51866;SDS011;52862;52.504;13.480;2023-07-30T08:23:28;8.27;;;2.83;;
51866;SDS011;52862;52.504;13.480;2023-07-30T08:25:55;6.32;;;2.97;;
51866;SDS011;52862;52.504;13.480;2023-07-30T08:28:23;3.70;;;2.22;;
51866;SDS011;52862;52.504;13.480;2023-07-30T08:30:51;5.72;;;2.50;;
51866;SDS011;52862;52.504;13.480;2023-07-30T08:33:18;8.77;;;2.53;;
51866;SDS011;52862;52.504;13.480;2023-07-30T08:35:45;5.78;;;2.92;;
51866;SDS011;52862;52.504;13.480;2023-07-30T08:38:12;4.95;;;2.58;;
51866;SDS011;52862;52.504;13.480;2023-07-30T08:40:38;9.13;;;3.10;;
51866;SDS011;52862;52.504;13.480;2023-07-30T08:43:06;4.70;;;2.53;;
51866;SDS011;52862;52.504;13.480;2023-07-30T08:45:33;5.55;;;2.55;;
51866;SDS011;52862;52.504;13.480;2023-07-30T08:48:00;4.32;;;2.70;;
51866;SDS011;52862;52.504;13.480;2023-07-30T08:50:27;7.25;;;2.60;;
51866;SDS011;52862;52.504;13.480;2023-07-30T08:52:55;6.15;;;2.40;;
51866;SDS011;52862;52.504;13.480;2023-07-30T08:55:22;17.83;;;2.28;;
51866;SDS011;52862;52.504;13.480;2023-07-30T08:57:51;4.68;;;2.60;;
51866;SDS011;52862;52.504;13.480;2023-07-30T09:00:22;14.65;;;2.47;;
51866;SDS011;52862;52.504;13.480;2023-07-30T09:03:02;7.57;;;1.95;;
51866;SDS011;52862;52.504;13.480;2023-07-30T09:05:30;7.72;;;3.08;;
51866;SDS011;52862;52.504;13.480;2023-07-30T09:07:57;23.17;;;2.88;;
51866;SDS011;52862;52.504;13.480;2023-07-30T09:10:25;9.48;;;2.88;;
51866;SDS011;52862;52.504;13.480;2023-07-30T09:12:52;3.83;;;2.53;;
51866;SDS011;52862;52.504;13.480;2023-07-30T09:15:20;7.35;;;2.88;;
51866;SDS011;52862;52.504;13.480;2023-07-30T09:17:55;7.20;;;2.72;;
51866;SDS011;52862;52.504;13.480;2023-07-30T09:20:23;6.32;;;2.53;;
51866;SDS011;52862;52.504;13.480;2023-07-30T09:22:50;8.27;;;2.50;;
51866;SDS011;52862;52.504;13.480;2023-07-30T09:25:17;6.10;;;2.30;;
51866;SDS011;52862;52.504;13.480;2023-07-30T09:27:47;5.93;;;2.40;;
51866;SDS011;52862;52.504;13.480;2023-07-30T09:30:14;5.95;;;2.65;;
51866;SDS011;52862;52.504;13.480;2023-07-30T09:32:50;12.27;;;2.42;;
51866;SDS011;52862;52.504;13.480;2023-07-30T09:35:18;8.98;;;2.70;;
51866;SDS011;52862;52.504;13.480;2023-07-30T09:37:46;11.52;;;2.53;;
51866;SDS011;52862;52.504;13.480;2023-07-30T09:40:14;6.63;;;2.30;;
51866;SDS011;52862;52.504;13.480;2023-07-30T09:42:43;5.00;;;2.17;;
51866;SDS011;52862;52.504;13.480;2023-07-30T09:45:16;5.13;;;2.33;;
51866;SDS011;52862;52.504;13.480;2023-07-30T09:47:45;8.73;;;2.22;;
51866;SDS011;52862;52.504;13.480;2023-07-30T09:50:13;4.43;;;2.08;;
51866;SDS011;52862;52.504;13.480;2023-07-30T09:52:40;6.35;;;2.55;;
51866;SDS011;52862;52.504;13.480;2023-07-30T09:55:08;8.32;;;3.22;;
51866;SDS011;52862;52.504;13.480;2023-07-30T09:57:36;8.98;;;2.53;;
51866;SDS011;52862;52.504;13.480;2023-07-30T10:00:03;6.53;;;2.28;;
51866;SDS011;52862;52.504;13.480;2023-07-30T10:02:31;4.20;;;1.98;;
51866;SDS011;52862;52.504;13.480;2023-07-30T10:05:02;12.30;;;2.22;;
51866;SDS011;52862;52.504;13.480;2023-07-30T10:07:34;5.78;;;2.45;;
51866;SDS011;52862;52.504;13.480;2023-07-30T10:10:01;5.28;;;2.22;;
51866;SDS011;52862;52.504;13.480;2023-07-30T10:12:32;6.03;;;2.78;;
51866;SDS011;52862;52.504;13.480;2023-07-30T10:15:00;4.78;;;2.10;;
51866;SDS011;52862;52.504;13.480;2023-07-30T10:17:27;10.02;;;2.45;;
51866;SDS011;52862;52.504;13.480;2023-07-30T10:19:54;8.82;;;2.67;;
51866;SDS011;52862;52.504;13.480;2023-07-30T10:22:22;6.80;;;1.88;;
51866;SDS011;52862;52.504;13.480;2023-07-30T10:25:00;12.98;;;2.40;;
51866;SDS011;52862;52.504;13.480;2023-07-30T10:27:37;4.85;;;1.95;;
51866;SDS011;52862;52.504;13.480;2023-07-30T10:30:09;7.93;;;2.45;;
51866;SDS011;52862;52.504;13.480;2023-07-30T10:32:39;5.53;;;1.92;;
51866;SDS011;52862;52.504;13.480;2023-07-30T10:35:07;10.48;;;1.75;;
51866;SDS011;52862;52.504;13.480;2023-07-30T10:37:42;18.02;;;2.10;;
51866;SDS011;52862;52.504;13.480;2023-07-30T10:40:16;6.28;;;2.28;;
51866;SDS011;52862;52.504;13.480;2023-07-30T10:42:44;14.10;;;1.88;;
51866;SDS011;52862;52.504;13.480;2023-07-30T10:45:11;7.57;;;2.30;;
51866;SDS011;52862;52.504;13.480;2023-07-30T10:47:38;8.15;;;2.88;;
51866;SDS011;52862;52.504;13.480;2023-07-30T10:50:07;11.57;;;2.30;;
51866;SDS011;52862;52.504;13.480;2023-07-30T10:52:37;6.00;;;2.45;;
51866;SDS011;52862;52.504;13.480;2023-07-30T10:55:04;7.93;;;2.03;;
51866;SDS011;52862;52.504;13.480;2023-07-30T10:57:32;12.13;;;2.63;;
51866;SDS011;52862;52.504;13.480;2023-07-30T10:59:59;3.78;;;1.80;;
51866;SDS011;52862;52.504;13.480;2023-07-30T11:02:27;7.53;;;2.50;;
51866;SDS011;52862;52.504;13.480;2023-07-30T11:04:57;8.27;;;2.15;;
51866;SDS011;52862;52.504;13.480;2023-07-30T11:07:25;4.43;;;2.00;;
51866;SDS011;52862;52.504;13.480;2023-07-30T11:09:58;8.07;;;2.28;;
